createdAt,value
2023-09-17T00:01:17.467Z,17.67
2023-09-17T00:03:44.395Z,19.60
2023-09-17T00:06:11.233Z,17.50
2023-09-17T00:08:39.165Z,20.90
2023-09-17T00:11:05.832Z,17.77
2023-09-17T00:13:33.030Z,18.38
2023-09-17T00:16:00.815Z,17.75
2023-09-17T00:18:28.138Z,21.17
2023-09-17T00:20:54.870Z,16.58
2023-09-17T00:23:21.680Z,17.83
2023-09-17T00:25:48.519Z,17.30
2023-09-17T00:28:15.393Z,14.95
2023-09-17T00:30:42.254Z,21.00
2023-09-17T00:33:09.131Z,20.80
2023-09-17T00:35:35.967Z,17.33
2023-09-17T00:38:03.100Z,21.83
2023-09-17T00:40:31.427Z,21.92
2023-09-17T00:42:58.314Z,16.88
2023-09-17T00:45:25.140Z,24.20
2023-09-17T00:47:52.245Z,19.60
2023-09-17T00:50:19.201Z,19.63
2023-09-17T00:52:46.693Z,22.58
2023-09-17T00:55:13.745Z,19.42
2023-09-17T00:57:46.854Z,24.67
2023-09-17T01:00:14.559Z,18.50
2023-09-17T01:02:43.892Z,22.13
2023-09-17T01:05:11.104Z,19.98
2023-09-17T01:07:39.533Z,16.25
2023-09-17T01:10:07.856Z,15.40
2023-09-17T01:12:35.434Z,18.83
2023-09-17T01:15:07.318Z,20.30
2023-09-17T01:17:35.736Z,21.52
2023-09-17T01:20:08.606Z,17.70
2023-09-17T01:22:42.890Z,23.77
2023-09-17T01:25:37.509Z,29.67
2023-09-17T01:28:07.097Z,17.85
2023-09-17T01:30:33.900Z,15.02
2023-09-17T01:33:02.206Z,23.35
2023-09-17T01:35:31.545Z,24.02
2023-09-17T01:38:02.754Z,25.42
2023-09-17T01:40:29.686Z,22.10
2023-09-17T01:42:58.224Z,22.35
2023-09-17T01:45:28.261Z,29.10
2023-09-17T01:47:56.227Z,21.23
2023-09-17T01:50:25.169Z,21.45
2023-09-17T01:52:53.237Z,25.42
2023-09-17T01:55:20.008Z,26.15
2023-09-17T01:57:46.725Z,24.58
2023-09-17T02:00:18.424Z,25.25
2023-09-17T02:02:51.077Z,19.98
2023-09-17T02:05:18.381Z,19.65
2023-09-17T02:07:45.899Z,20.48
2023-09-17T02:10:13.482Z,25.52
2023-09-17T02:12:40.583Z,24.90
2023-09-17T02:15:10.682Z,26.80
2023-09-17T02:17:37.814Z,25.40
2023-09-17T02:20:09.654Z,23.58
2023-09-17T02:22:36.466Z,24.95
2023-09-17T02:25:04.164Z,24.65
2023-09-17T02:27:30.907Z,27.27
2023-09-17T02:29:57.595Z,21.75
2023-09-17T02:32:24.319Z,26.90
2023-09-17T02:34:51.070Z,22.15
2023-09-17T02:37:17.805Z,23.75
2023-09-17T02:39:44.645Z,25.90
2023-09-17T02:42:13.172Z,16.65
2023-09-17T02:44:39.959Z,26.23
2023-09-17T02:47:06.808Z,23.27
2023-09-17T02:49:33.783Z,17.23
2023-09-17T02:52:00.554Z,22.27
2023-09-17T02:54:28.060Z,20.50
2023-09-17T02:56:55.250Z,21.02
2023-09-17T02:59:22.059Z,23.52
2023-09-17T03:01:48.975Z,25.38
2023-09-17T03:04:15.895Z,19.73
2023-09-17T03:06:42.613Z,24.23
2023-09-17T03:09:11.967Z,22.73
2023-09-17T03:11:38.936Z,22.92
2023-09-17T03:14:05.635Z,17.90
2023-09-17T03:16:32.502Z,28.45
2023-09-17T03:18:59.264Z,23.45
2023-09-17T03:21:26.050Z,27.48
2023-09-17T03:23:53.222Z,30.85
2023-09-17T03:26:20.109Z,22.35
2023-09-17T03:28:46.958Z,27.42
2023-09-17T03:31:13.879Z,24.92
2023-09-17T03:33:40.689Z,24.92
2023-09-17T03:36:07.489Z,24.42
2023-09-17T03:38:34.513Z,26.95
2023-09-17T03:41:01.810Z,23.58
2023-09-17T03:43:29.078Z,30.77
2023-09-17T03:45:55.797Z,26.52
2023-09-17T03:48:22.956Z,20.88
2023-09-17T03:50:50.618Z,29.90
2023-09-17T03:53:17.680Z,29.27
2023-09-17T03:55:46.214Z,24.33
2023-09-17T03:58:13.672Z,28.08
2023-09-17T04:00:40.455Z,25.10
2023-09-17T04:03:09.699Z,27.45
2023-09-17T04:05:36.783Z,28.48
2023-09-17T04:08:04.533Z,26.52
2023-09-17T04:10:31.651Z,20.92
2023-09-17T04:12:58.388Z,21.30
2023-09-17T04:15:25.163Z,30.10
2023-09-17T04:17:52.548Z,21.60
2023-09-17T04:20:20.630Z,25.45
2023-09-17T04:22:50.110Z,23.75
2023-09-17T04:25:20.124Z,28.10
2023-09-17T04:27:48.227Z,26.42
2023-09-17T04:30:17.426Z,24.05
2023-09-17T04:32:45.641Z,27.52
2023-09-17T04:35:20.128Z,24.50
2023-09-17T04:37:49.299Z,23.40
2023-09-17T04:40:16.831Z,30.92
2023-09-17T04:42:44.687Z,33.40
2023-09-17T04:45:12.447Z,26.23
2023-09-17T04:47:41.275Z,23.08
2023-09-17T04:50:11.282Z,22.30
2023-09-17T04:52:38.398Z,25.73
2023-09-17T04:55:06.602Z,28.17
2023-09-17T04:57:33.398Z,26.70
2023-09-17T05:00:08.701Z,30.10
2023-09-17T05:02:35.514Z,30.58
2023-09-17T05:05:02.332Z,28.10
2023-09-17T05:07:29.157Z,30.83
2023-09-17T05:09:55.857Z,25.30
2023-09-17T05:12:22.580Z,34.50
2023-09-17T05:14:49.290Z,34.25
2023-09-17T05:17:16.815Z,30.63
2023-09-17T05:19:43.612Z,26.95
2023-09-17T05:22:10.371Z,27.98
2023-09-17T05:24:37.078Z,28.70
2023-09-17T05:27:04.564Z,31.25
2023-09-17T05:29:31.433Z,24.23
2023-09-17T05:31:58.241Z,25.95
2023-09-17T05:34:25.219Z,31.23
2023-09-17T05:36:51.938Z,23.48
2023-09-17T05:39:18.658Z,26.67
2023-09-17T05:41:45.372Z,28.88
2023-09-17T05:44:12.158Z,29.65
2023-09-17T05:46:38.949Z,27.85
2023-09-17T05:49:05.708Z,33.33
2023-09-17T05:51:32.573Z,29.67
2023-09-17T05:53:59.315Z,35.47
2023-09-17T05:56:26.063Z,29.75
2023-09-17T05:58:52.784Z,30.55
2023-09-17T06:01:19.593Z,31.90
2023-09-17T06:03:46.389Z,29.83
2023-09-17T06:06:13.122Z,28.65
2023-09-17T06:08:40.145Z,27.42
2023-09-17T06:11:06.843Z,28.65
2023-09-17T06:13:33.776Z,38.13
2023-09-17T06:16:00.767Z,28.35
2023-09-17T06:18:29.951Z,26.35
2023-09-17T06:20:57.809Z,24.80
2023-09-17T06:23:24.518Z,29.30
2023-09-17T06:25:51.320Z,25.50
2023-09-17T06:28:18.396Z,29.42
2023-09-17T06:30:46.443Z,29.48
2023-09-17T06:33:13.225Z,29.98
2023-09-17T06:35:39.988Z,27.13
2023-09-17T06:38:06.675Z,29.73
2023-09-17T06:40:33.467Z,31.90
2023-09-17T06:43:00.420Z,27.80
2023-09-17T06:45:27.138Z,37.70
2023-09-17T06:47:53.944Z,28.20
2023-09-17T06:50:20.660Z,31.98
2023-09-17T06:52:47.395Z,31.60
2023-09-17T06:55:14.149Z,27.88
2023-09-17T06:57:40.857Z,31.15
2023-09-17T07:00:08.304Z,31.45
2023-09-17T07:02:35.083Z,32.92
2023-09-17T07:05:04.871Z,33.78
2023-09-17T07:07:31.938Z,25.60
2023-09-17T07:09:58.753Z,26.35
2023-09-17T07:12:25.528Z,25.13
2023-09-17T07:14:52.221Z,28.77
2023-09-17T07:17:19.013Z,24.50
2023-09-17T07:19:45.937Z,28.25
2023-09-17T07:22:16.171Z,30.08
2023-09-17T07:24:43.480Z,29.77
2023-09-17T07:27:10.224Z,30.33
2023-09-17T07:29:36.993Z,29.33
2023-09-17T07:32:04.737Z,28.30
2023-09-17T07:34:32.428Z,28.10
2023-09-17T07:37:01.283Z,31.48
2023-09-17T07:39:28.283Z,31.38
2023-09-17T07:41:54.986Z,24.00
2023-09-17T07:44:21.907Z,26.30
2023-09-17T07:46:48.803Z,30.98
2023-09-17T07:49:15.593Z,32.40
2023-09-17T07:51:42.337Z,27.23
2023-09-17T07:54:09.876Z,29.75
2023-09-17T07:56:36.615Z,28.10
2023-09-17T07:59:04.530Z,28.30
2023-09-17T08:01:33.184Z,33.20
2023-09-17T08:04:00.362Z,29.05
2023-09-17T08:06:27.230Z,25.08
2023-09-17T08:08:53.993Z,28.05
2023-09-17T08:11:20.968Z,32.42
2023-09-17T08:13:49.317Z,30.63
2023-09-17T08:16:16.471Z,27.15
2023-09-17T08:18:43.489Z,33.90
2023-09-17T08:21:10.377Z,27.05
2023-09-17T08:23:37.127Z,29.38
2023-09-17T08:26:05.953Z,21.52
2023-09-17T08:28:32.720Z,31.50
2023-09-17T08:30:59.551Z,30.48
2023-09-17T08:33:26.515Z,26.42
2023-09-17T08:35:53.443Z,24.65
2023-09-17T08:38:20.393Z,23.55
2023-09-17T08:40:48.419Z,36.28
2023-09-17T08:43:16.762Z,28.65
2023-09-17T08:45:43.752Z,28.70
2023-09-17T08:48:10.645Z,30.08
2023-09-17T08:50:38.412Z,21.60
2023-09-17T08:53:08.682Z,22.80
2023-09-17T08:55:36.204Z,22.95
2023-09-17T08:58:25.610Z,23.10
2023-09-17T09:00:57.397Z,27.52
2023-09-17T09:03:26.780Z,28.23
2023-09-17T09:05:58.204Z,27.40
2023-09-17T09:08:26.247Z,24.60
2023-09-17T09:10:53.324Z,33.75
2023-09-17T09:13:22.267Z,27.65
2023-09-17T09:15:49.505Z,29.30
2023-09-17T09:18:16.471Z,26.70
2023-09-17T09:20:43.789Z,22.40
2023-09-17T09:23:10.774Z,27.33
2023-09-17T09:25:37.669Z,25.70
2023-09-17T09:28:05.088Z,24.85
2023-09-17T09:30:31.926Z,21.95
2023-09-17T09:32:58.854Z,23.98
2023-09-17T09:35:26.524Z,28.27
2023-09-17T09:37:54.833Z,23.90
2023-09-17T09:40:22.954Z,21.63
2023-09-17T09:42:50.452Z,29.55
2023-09-17T09:45:17.927Z,20.48
2023-09-17T09:47:52.193Z,26.05
2023-09-17T09:50:26.719Z,18.38
2023-09-17T09:52:54.754Z,23.50
2023-09-17T09:55:26.112Z,28.30
2023-09-17T09:57:53.593Z,22.95
2023-09-17T10:00:28.198Z,22.13
2023-09-17T10:02:56.471Z,21.60
2023-09-17T10:05:38.441Z,21.67
2023-09-17T10:08:06.055Z,26.90
2023-09-17T10:10:33.302Z,24.85
2023-09-17T10:13:02.231Z,22.70
2023-09-17T10:15:29.103Z,20.30
2023-09-17T10:17:58.121Z,22.27
2023-09-17T10:20:27.632Z,18.52
2023-09-17T10:22:56.198Z,21.17
2023-09-17T10:25:24.664Z,23.15
2023-09-17T10:27:55.173Z,24.35
2023-09-17T10:32:51.852Z,27.73
2023-09-17T10:35:18.842Z,22.17
2023-09-17T10:37:47.615Z,33.45
2023-09-17T10:40:14.523Z,22.42
2023-09-17T10:42:41.252Z,27.23
2023-09-17T10:45:09.399Z,30.42
2023-09-17T10:47:39.770Z,26.67
2023-09-17T10:50:07.148Z,27.23
2023-09-17T10:52:37.306Z,33.60
2023-09-17T10:55:09.211Z,25.50
2023-09-17T10:57:42.019Z,29.33
2023-09-17T11:00:14.845Z,25.30
2023-09-17T11:02:51.912Z,21.65
2023-09-17T11:05:24.110Z,33.55
2023-09-17T11:07:56.167Z,25.23
2023-09-17T11:10:31.636Z,30.65
2023-09-17T11:15:26.467Z,39.15
2023-09-17T11:18:01.183Z,32.95
2023-09-17T11:20:28.140Z,26.85
2023-09-17T11:22:54.857Z,31.60
2023-09-17T11:25:38.717Z,23.98
2023-09-17T11:28:13.953Z,33.20
2023-09-17T11:30:59.930Z,35.22
2023-09-17T11:33:30.689Z,26.52
2023-09-17T11:38:26.262Z,34.83
2023-09-17T11:41:12.685Z,30.48
2023-09-17T11:43:44.755Z,28.08
2023-09-17T11:46:13.025Z,31.02
2023-09-17T11:48:43.234Z,35.97
2023-09-17T11:51:26.947Z,37.67
2023-09-17T11:54:02.383Z,41.85
2023-09-17T11:56:33.951Z,36.03
2023-09-17T11:59:04.932Z,33.53
2023-09-17T12:01:42.888Z,30.83
2023-09-17T12:04:11.464Z,31.63
2023-09-17T12:06:41.092Z,30.30
2023-09-17T12:09:22.643Z,29.90
2023-09-17T12:11:49.809Z,41.65
2023-09-17T12:14:17.938Z,31.08
2023-09-17T12:16:47.479Z,36.55
2023-09-17T12:19:18.289Z,31.90
2023-09-17T12:21:50.326Z,30.70
2023-09-17T12:24:21.638Z,37.97
2023-09-17T12:27:10.068Z,38.80
2023-09-17T12:29:38.079Z,39.40
2023-09-17T12:32:06.023Z,25.13
2023-09-17T12:34:37.008Z,42.20
2023-09-17T12:37:06.827Z,31.90
2023-09-17T12:39:33.819Z,34.92
2023-09-17T12:42:00.664Z,32.83
2023-09-17T12:44:28.207Z,28.67
2023-09-17T12:46:55.202Z,40.55
2023-09-17T12:49:23.229Z,37.83
2023-09-17T12:51:52.734Z,29.08
2023-09-17T12:54:22.565Z,34.95
2023-09-17T12:56:50.395Z,42.70
2023-09-17T12:59:17.568Z,32.78
2023-09-17T13:01:59.035Z,39.30
2023-09-17T13:04:35.845Z,24.00
2023-09-17T13:07:05.382Z,36.60
2023-09-17T13:09:35.335Z,36.35
2023-09-17T13:12:02.469Z,42.55
2023-09-17T13:14:31.528Z,39.42
2023-09-17T13:16:58.512Z,32.22
2023-09-17T13:19:25.918Z,33.25
2023-09-17T13:21:52.711Z,34.35
2023-09-17T13:24:19.910Z,35.28
2023-09-17T13:26:46.611Z,34.47
2023-09-17T13:29:13.367Z,35.33
2023-09-17T13:31:42.050Z,28.95
2023-09-17T13:34:11.704Z,40.45
2023-09-17T13:36:38.868Z,35.63
2023-09-17T13:39:05.784Z,36.95
2023-09-17T13:41:32.654Z,37.45
2023-09-17T13:43:59.531Z,34.22
2023-09-17T13:46:26.332Z,32.85
2023-09-17T13:48:53.318Z,34.45
2023-09-17T13:51:20.285Z,39.30
2023-09-17T13:53:47.021Z,34.55
2023-09-17T13:56:13.875Z,38.92
2023-09-17T13:58:40.797Z,35.08
2023-09-17T14:01:07.673Z,36.72
2023-09-17T14:03:34.484Z,35.72
2023-09-17T14:06:01.311Z,40.45
2023-09-17T14:08:30.898Z,27.20
2023-09-17T14:10:57.686Z,36.35
2023-09-17T14:13:24.478Z,27.38
2023-09-17T14:15:51.329Z,33.80
2023-09-17T14:18:18.219Z,32.75
2023-09-17T14:20:45.080Z,32.58
2023-09-17T14:23:11.867Z,35.30
2023-09-17T14:25:38.663Z,36.60
2023-09-17T14:28:06.058Z,27.75
2023-09-17T14:30:35.181Z,30.17
2023-09-17T14:33:02.179Z,32.90
2023-09-17T14:35:29.312Z,29.92
2023-09-17T14:37:56.221Z,34.35
2023-09-17T14:40:23.279Z,35.45
2023-09-17T14:42:50.038Z,30.85
2023-09-17T14:45:16.848Z,29.17
2023-09-17T14:47:44.613Z,36.47
2023-09-17T14:50:12.879Z,28.73
2023-09-17T14:52:42.627Z,34.47
2023-09-17T14:55:09.732Z,34.90
2023-09-17T14:57:37.979Z,35.40
2023-09-17T15:00:06.043Z,34.88
2023-09-17T15:02:33.436Z,29.55
2023-09-17T15:05:01.663Z,26.85
2023-09-17T15:07:28.810Z,29.23
2023-09-17T15:09:55.523Z,23.77
2023-09-17T15:12:22.232Z,31.98
2023-09-17T15:14:48.983Z,30.27
2023-09-17T15:17:15.793Z,30.27
2023-09-17T15:19:42.647Z,30.55
2023-09-17T15:22:09.450Z,33.92
2023-09-17T15:24:36.131Z,36.58
2023-09-17T15:27:02.890Z,25.58
2023-09-17T15:29:30.137Z,30.83
2023-09-17T15:31:57.234Z,30.40
2023-09-17T15:34:25.548Z,37.75
2023-09-17T15:36:53.168Z,33.65
2023-09-17T15:39:20.381Z,25.30
2023-09-17T15:41:47.209Z,31.48
2023-09-17T15:44:16.180Z,23.95
2023-09-17T15:46:43.823Z,30.25
2023-09-17T15:49:10.911Z,32.63
2023-09-17T15:51:37.863Z,28.10
2023-09-17T15:54:05.228Z,37.45
2023-09-17T15:56:32.077Z,34.15
2023-09-17T15:58:58.951Z,28.60
2023-09-17T16:01:25.866Z,29.88
2023-09-17T16:03:52.925Z,24.15
2023-09-17T16:06:24.612Z,38.08
2023-09-17T16:08:53.344Z,27.60
2023-09-17T16:11:20.368Z,29.92
2023-09-17T16:13:47.173Z,33.38
2023-09-17T16:16:14.106Z,36.55
2023-09-17T16:18:40.833Z,28.10
2023-09-17T16:21:07.675Z,31.10
2023-09-17T16:23:34.508Z,35.92
2023-09-17T16:26:01.331Z,30.92
2023-09-17T16:28:29.675Z,33.42
2023-09-17T16:30:56.456Z,27.10
2023-09-17T16:33:23.242Z,31.77
2023-09-17T16:35:50.013Z,35.65
2023-09-17T16:38:16.834Z,40.33
2023-09-17T16:40:45.989Z,26.63
2023-09-17T16:43:15.782Z,32.70
2023-09-17T16:45:44.103Z,31.58
2023-09-17T16:48:11.872Z,35.63
2023-09-17T16:50:38.632Z,31.40
2023-09-17T16:53:05.834Z,29.20
2023-09-17T16:55:32.754Z,34.63
2023-09-17T16:57:59.486Z,29.13
2023-09-17T17:00:26.306Z,36.17
2023-09-17T17:02:53.757Z,28.67
2023-09-17T17:05:20.750Z,40.30
2023-09-17T17:07:47.657Z,41.22
2023-09-17T17:10:14.798Z,36.17
2023-09-17T17:12:41.869Z,33.83
2023-09-17T17:15:09.501Z,27.60
2023-09-17T17:17:36.419Z,41.78
2023-09-17T17:20:05.090Z,27.70
2023-09-17T17:22:43.176Z,34.08
2023-09-17T17:25:10.649Z,44.78
2023-09-17T17:27:37.408Z,34.85
2023-09-17T17:30:07.703Z,25.85
2023-09-17T17:32:34.519Z,30.75
2023-09-17T17:35:01.489Z,36.78
2023-09-17T17:37:28.263Z,31.40
2023-09-17T17:39:59.449Z,38.40
2023-09-17T17:42:27.622Z,33.55
2023-09-17T17:44:55.737Z,26.33
2023-09-17T17:47:22.869Z,41.55
2023-09-17T17:49:52.000Z,35.78
2023-09-17T17:52:22.203Z,27.15
2023-09-17T17:54:49.787Z,32.15
2023-09-17T17:57:18.720Z,29.63
2023-09-17T17:59:46.426Z,34.33
2023-09-17T18:02:14.484Z,36.80
2023-09-17T18:04:41.447Z,33.90
2023-09-17T18:07:08.354Z,42.15
2023-09-17T18:09:35.082Z,31.52
2023-09-17T18:12:03.823Z,33.45
2023-09-17T18:14:31.395Z,38.35
2023-09-17T18:16:58.275Z,32.03
2023-09-17T18:19:25.059Z,31.98
2023-09-17T18:21:51.825Z,36.58
2023-09-17T18:24:18.584Z,29.63
2023-09-17T18:26:45.341Z,29.85
2023-09-17T18:29:12.368Z,34.80
2023-09-17T18:31:39.169Z,37.00
2023-09-17T18:34:05.864Z,42.53
2023-09-17T18:36:33.898Z,35.75
2023-09-17T18:39:01.225Z,39.15
2023-09-17T18:41:27.971Z,36.40
2023-09-17T18:43:55.036Z,37.40
2023-09-17T18:46:22.126Z,36.22
2023-09-17T18:48:48.805Z,27.48
2023-09-17T18:51:15.957Z,14.68
2023-09-17T18:53:42.844Z,16.02
2023-09-17T18:56:09.704Z,13.40
2023-09-17T18:58:36.460Z,13.57
2023-09-17T19:01:04.319Z,12.63
2023-09-17T19:03:31.093Z,10.13
2023-09-17T19:06:00.070Z,8.70
2023-09-17T19:08:26.931Z,10.02
2023-09-17T19:10:54.115Z,6.40
2023-09-17T19:13:20.932Z,7.72
2023-09-17T19:15:48.222Z,6.30
2023-09-17T19:18:15.842Z,8.98
2023-09-17T19:20:44.076Z,10.07
2023-09-17T19:23:11.008Z,10.18
2023-09-17T19:25:37.813Z,8.07
2023-09-17T19:28:07.575Z,6.65
2023-09-17T19:30:34.435Z,6.88
2023-09-17T19:33:01.197Z,6.70
2023-09-17T19:35:28.006Z,7.10
2023-09-17T19:37:54.732Z,6.72
2023-09-17T19:40:21.651Z,5.97
2023-09-17T19:42:48.327Z,6.90
2023-09-17T19:45:15.086Z,4.55
2023-09-17T19:47:43.685Z,3.60
2023-09-17T19:50:10.902Z,5.18
2023-09-17T19:52:37.645Z,3.80
2023-09-17T19:55:05.281Z,4.05
2023-09-17T19:57:32.049Z,5.20
2023-09-17T20:00:00.507Z,4.30
2023-09-17T20:02:27.363Z,4.68
2023-09-17T20:04:54.230Z,3.38
2023-09-17T20:07:20.982Z,5.82
2023-09-17T20:09:47.778Z,5.90
2023-09-17T20:12:14.734Z,6.18
2023-09-17T20:14:41.461Z,4.47
2023-09-17T20:17:08.179Z,3.50
2023-09-17T20:19:37.653Z,3.65
2023-09-17T20:22:04.700Z,5.60
2023-09-17T20:24:32.337Z,3.53
2023-09-17T20:26:59.172Z,3.95
2023-09-17T20:29:25.948Z,4.72
2023-09-17T20:31:55.884Z,5.50
2023-09-17T20:34:23.885Z,4.85
2023-09-17T20:36:51.152Z,5.32
2023-09-17T20:39:18.131Z,6.18
2023-09-17T20:41:46.049Z,6.18
2023-09-17T20:44:13.879Z,6.45
2023-09-17T20:46:41.626Z,7.22
2023-09-17T20:49:10.275Z,6.75
2023-09-17T20:51:37.048Z,14.15
2023-09-17T20:54:03.934Z,8.93
2023-09-17T20:56:30.973Z,8.45
2023-09-17T20:58:59.011Z,8.45
2023-09-17T21:01:25.810Z,6.05
2023-09-17T21:03:54.137Z,7.50
2023-09-17T21:06:21.392Z,8.27
2023-09-17T21:08:48.281Z,8.73
2023-09-17T21:11:17.127Z,5.85
2023-09-17T21:13:43.967Z,6.70
2023-09-17T21:16:10.922Z,8.30
2023-09-17T21:18:37.823Z,9.00
2023-09-17T21:21:04.793Z,9.60
2023-09-17T21:23:31.774Z,6.35
2023-09-17T21:25:58.646Z,6.97
2023-09-17T21:28:25.456Z,6.63
2023-09-17T21:30:52.338Z,5.82
2023-09-17T21:33:19.208Z,9.93
2023-09-17T21:35:46.053Z,7.60
2023-09-17T21:38:12.841Z,6.72
2023-09-17T21:40:39.801Z,7.18
2023-09-17T21:43:06.532Z,6.03
2023-09-17T21:45:33.295Z,7.47
2023-09-17T21:48:01.641Z,4.65
2023-09-17T21:50:28.403Z,9.30
2023-09-17T21:52:55.231Z,7.07
2023-09-17T21:55:21.980Z,8.23
2023-09-17T21:57:49.146Z,6.35
2023-09-17T22:00:24.852Z,6.43
2023-09-17T22:02:52.725Z,6.60
2023-09-17T22:05:23.268Z,6.00
2023-09-17T22:07:50.307Z,7.32
2023-09-17T22:10:18.014Z,5.55
2023-09-17T22:12:45.079Z,6.93
2023-09-17T22:15:11.852Z,5.68
2023-09-17T22:17:38.683Z,4.28
2023-09-17T22:20:16.172Z,7.55
2023-09-17T22:22:43.794Z,6.70
2023-09-17T22:25:11.559Z,5.80
2023-09-17T22:27:38.758Z,7.45
2023-09-17T22:30:07.979Z,6.22
2023-09-17T22:32:35.748Z,9.20
2023-09-17T22:35:02.992Z,9.40
2023-09-17T22:37:30.078Z,6.45
2023-09-17T22:39:57.010Z,6.43
2023-09-17T22:42:23.771Z,8.27
2023-09-17T22:44:50.577Z,7.93
2023-09-17T22:47:17.441Z,10.35
2023-09-17T22:49:44.856Z,9.65
2023-09-17T22:52:11.639Z,8.65
2023-09-17T22:54:39.258Z,9.63
2023-09-17T22:57:06.190Z,9.05
2023-09-17T22:59:33.114Z,9.63
2023-09-17T23:02:00.009Z,12.18
2023-09-17T23:04:26.798Z,19.35
2023-09-17T23:06:55.528Z,7.68
2023-09-17T23:09:22.301Z,10.90
2023-09-17T23:11:49.069Z,7.13
2023-09-17T23:14:15.814Z,8.32
2023-09-17T23:16:42.837Z,7.90
2023-09-17T23:19:09.692Z,10.07
2023-09-17T23:21:37.429Z,9.20
2023-09-17T23:24:05.392Z,29.58
2023-09-17T23:26:33.024Z,11.73
2023-09-17T23:29:01.129Z,11.32
2023-09-17T23:31:28.607Z,8.73
2023-09-17T23:33:55.707Z,8.98
2023-09-17T23:36:24.885Z,10.77
2023-09-17T23:38:51.821Z,8.82
2023-09-17T23:41:18.783Z,7.82
2023-09-17T23:43:45.729Z,7.88
2023-09-17T23:46:12.593Z,7.20
2023-09-17T23:48:39.353Z,6.53
2023-09-17T23:51:06.123Z,8.27
2023-09-17T23:53:33.224Z,6.90
2023-09-17T23:56:00.782Z,6.53
2023-09-17T23:58:27.555Z,5.68
